sensor_id;sensor_type;location;lat;lon;timestamp;temperature;humidity
7494;DHT22;3788;49.902;8.590;2023-01-08T00:01:13;9.80;99.90
7494;DHT22;3788;49.902;8.590;2023-01-08T00:03:40;9.90;99.90
7494;DHT22;3788;49.902;8.590;2023-01-08T00:06:09;9.90;99.90
7494;DHT22;3788;49.902;8.590;2023-01-08T00:08:37;9.90;99.90
7494;DHT22;3788;49.902;8.590;2023-01-08T00:11:04;9.90;99.90
7494;DHT22;3788;49.902;8.590;2023-01-08T00:13:30;9.90;99.90
7494;DHT22;3788;49.902;8.590;2023-01-08T00:16:02;9.90;99.90
7494;DHT22;3788;49.902;8.590;2023-01-08T00:18:30;9.90;99.90
7494;DHT22;3788;49.902;8.590;2023-01-08T00:20:57;9.90;99.90
7494;DHT22;3788;49.902;8.590;2023-01-08T00:23:24;9.90;99.90
7494;DHT22;3788;49.902;8.590;2023-01-08T00:25:50;9.90;99.90
7494;DHT22;3788;49.902;8.590;2023-01-08T00:28:17;9.90;99.90
7494;DHT22;3788;49.902;8.590;2023-01-08T00:30:45;9.90;99.90
7494;DHT22;3788;49.902;8.590;2023-01-08T00:33:12;9.90;99.90
7494;DHT22;3788;49.902;8.590;2023-01-08T00:35:40;9.90;99.90
7494;DHT22;3788;49.902;8.590;2023-01-08T00:38:07;9.90;99.90
7494;DHT22;3788;49.902;8.590;2023-01-08T00:40:34;10.00;99.90
7494;DHT22;3788;49.902;8.590;2023-01-08T00:43:02;9.90;99.90
7494;DHT22;3788;49.902;8.590;2023-01-08T00:45:29;9.90;99.90
7494;DHT22;3788;49.902;8.590;2023-01-08T00:47:55;9.90;99.90
7494;DHT22;3788;49.902;8.590;2023-01-08T00:50:22;9.90;99.90
7494;DHT22;3788;49.902;8.590;2023-01-08T00:52:50;9.90;99.90
7494;DHT22;3788;49.902;8.590;2023-01-08T00:55:17;9.90;99.90
7494;DHT22;3788;49.902;8.590;2023-01-08T00:57:44;9.90;99.90
7494;DHT22;3788;49.902;8.590;2023-01-08T01:00:13;9.90;99.90
7494;DHT22;3788;49.902;8.590;2023-01-08T01:02:41;9.90;99.90
7494;DHT22;3788;49.902;8.590;2023-01-08T01:05:09;10.00;99.90
7494;DHT22;3788;49.902;8.590;2023-01-08T01:07:39;10.00;99.90
7494;DHT22;3788;49.902;8.590;2023-01-08T01:10:08;10.00;99.90
7494;DHT22;3788;49.902;8.590;2023-01-08T01:12:36;10.00;99.90
7494;DHT22;3788;49.902;8.590;2023-01-08T01:15:04;10.10;99.90
7494;DHT22;3788;49.902;8.590;2023-01-08T01:17:30;10.10;99.90
7494;DHT22;3788;49.902;8.590;2023-01-08T01:19:57;10.10;99.90
7494;DHT22;3788;49.902;8.590;2023-01-08T01:22:24;10.20;99.90
7494;DHT22;3788;49.902;8.590;2023-01-08T01:24:50;10.20;99.90
7494;DHT22;3788;49.902;8.590;2023-01-08T01:27:18;10.20;99.90
7494;DHT22;3788;49.902;8.590;2023-01-08T01:29:45;10.20;99.90
7494;DHT22;3788;49.902;8.590;2023-01-08T01:32:12;10.30;99.90
7494;DHT22;3788;49.902;8.590;2023-01-08T01:34:38;10.20;99.90
7494;DHT22;3788;49.902;8.590;2023-01-08T01:37:05;10.20;99.90
7494;DHT22;3788;49.902;8.590;2023-01-08T01:39:32;10.20;99.90
7494;DHT22;3788;49.902;8.590;2023-01-08T01:41:58;10.20;99.90
7494;DHT22;3788;49.902;8.590;2023-01-08T01:44:41;10.20;99.90
7494;DHT22;3788;49.902;8.590;2023-01-08T01:47:15;10.30;99.90
7494;DHT22;3788;49.902;8.590;2023-01-08T01:49:49;10.30;99.90
7494;DHT22;3788;49.902;8.590;2023-01-08T01:52:18;10.20;99.90
7494;DHT22;3788;49.902;8.590;2023-01-08T01:54:47;10.30;99.90
7494;DHT22;3788;49.902;8.590;2023-01-08T01:57:14;10.20;99.90
7494;DHT22;3788;49.902;8.590;2023-01-08T01:59:42;10.20;99.90
7494;DHT22;3788;49.902;8.590;2023-01-08T02:02:10;10.20;99.90
7494;DHT22;3788;49.902;8.590;2023-01-08T02:04:37;10.10;99.90
7494;DHT22;3788;49.902;8.590;2023-01-08T02:07:08;10.10;99.90
7494;DHT22;3788;49.902;8.590;2023-01-08T02:09:43;10.00;99.90
7494;DHT22;3788;49.902;8.590;2023-01-08T02:12:16;10.00;99.90
7494;DHT22;3788;49.902;8.590;2023-01-08T02:14:57;9.90;99.90
7494;DHT22;3788;49.902;8.590;2023-01-08T02:17:33;9.90;99.90
7494;DHT22;3788;49.902;8.590;2023-01-08T02:20:07;9.80;99.90
7494;DHT22;3788;49.902;8.590;2023-01-08T02:22:45;9.70;99.90
7494;DHT22;3788;49.902;8.590;2023-01-08T02:25:20;9.70;99.90
7494;DHT22;3788;49.902;8.590;2023-01-08T02:27:53;9.60;99.90
7494;DHT22;3788;49.902;8.590;2023-01-08T02:30:20;9.60;99.90
7494;DHT22;3788;49.902;8.590;2023-01-08T02:32:46;9.50;99.90
7494;DHT22;3788;49.902;8.590;2023-01-08T02:35:13;9.50;99.90
7494;DHT22;3788;49.902;8.590;2023-01-08T02:37:40;9.50;99.90
7494;DHT22;3788;49.902;8.590;2023-01-08T02:40:18;9.50;99.90
7494;DHT22;3788;49.902;8.590;2023-01-08T02:42:53;9.40;99.90
7494;DHT22;3788;49.902;8.590;2023-01-08T02:45:30;9.40;99.90
7494;DHT22;3788;49.902;8.590;2023-01-08T02:48:06;9.40;99.90
7494;DHT22;3788;49.902;8.590;2023-01-08T02:50:37;9.40;99.90
7494;DHT22;3788;49.902;8.590;2023-01-08T02:53:11;9.40;99.90
7494;DHT22;3788;49.902;8.590;2023-01-08T02:55:40;9.30;99.90
7494;DHT22;3788;49.902;8.590;2023-01-08T02:58:09;9.30;99.90
7494;DHT22;3788;49.902;8.590;2023-01-08T03:00:38;9.30;99.90
7494;DHT22;3788;49.902;8.590;2023-01-08T03:03:09;9.30;99.90
7494;DHT22;3788;49.902;8.590;2023-01-08T03:05:39;9.30;99.90
7494;DHT22;3788;49.902;8.590;2023-01-08T03:08:07;9.30;99.90
7494;DHT22;3788;49.902;8.590;2023-01-08T03:10:36;9.20;99.90
7494;DHT22;3788;49.902;8.590;2023-01-08T03:13:07;9.20;99.90
7494;DHT22;3788;49.902;8.590;2023-01-08T03:15:41;9.20;99.90
7494;DHT22;3788;49.902;8.590;2023-01-08T03:18:14;9.20;99.90
7494;DHT22;3788;49.902;8.590;2023-01-08T03:20:44;9.20;99.90
7494;DHT22;3788;49.902;8.590;2023-01-08T03:23:14;9.20;99.90
7494;DHT22;3788;49.902;8.590;2023-01-08T03:25:43;9.20;99.90
7494;DHT22;3788;49.902;8.590;2023-01-08T03:28:15;9.20;99.90
7494;DHT22;3788;49.902;8.590;2023-01-08T03:30:45;9.20;99.90
7494;DHT22;3788;49.902;8.590;2023-01-08T03:33:15;9.20;99.90
7494;DHT22;3788;49.902;8.590;2023-01-08T03:35:45;9.20;99.90
7494;DHT22;3788;49.902;8.590;2023-01-08T03:38:16;9.20;99.90
7494;DHT22;3788;49.902;8.590;2023-01-08T03:40:46;9.20;99.90
7494;DHT22;3788;49.902;8.590;2023-01-08T03:43:13;9.20;99.90
7494;DHT22;3788;49.902;8.590;2023-01-08T03:45:48;9.20;99.90
7494;DHT22;3788;49.902;8.590;2023-01-08T03:48:16;9.30;99.90
7494;DHT22;3788;49.902;8.590;2023-01-08T03:50:44;9.30;99.90
7494;DHT22;3788;49.902;8.590;2023-01-08T03:53:10;9.30;99.90
7494;DHT22;3788;49.902;8.590;2023-01-08T03:55:37;9.30;99.90
7494;DHT22;3788;49.902;8.590;2023-01-08T03:58:04;9.30;99.90
7494;DHT22;3788;49.902;8.590;2023-01-08T04:00:30;9.30;99.90
7494;DHT22;3788;49.902;8.590;2023-01-08T04:02:58;9.30;99.90
7494;DHT22;3788;49.902;8.590;2023-01-08T04:05:25;9.30;99.90
7494;DHT22;3788;49.902;8.590;2023-01-08T04:07:54;9.30;99.90
7494;DHT22;3788;49.902;8.590;2023-01-08T04:10:21;9.30;99.90
7494;DHT22;3788;49.902;8.590;2023-01-08T04:12:47;9.30;99.90
7494;DHT22;3788;49.902;8.590;2023-01-08T04:15:14;9.30;99.90
7494;DHT22;3788;49.902;8.590;2023-01-08T04:17:41;9.30;99.90
7494;DHT22;3788;49.902;8.590;2023-01-08T04:20:10;9.30;99.90
7494;DHT22;3788;49.902;8.590;2023-01-08T04:22:36;9.30;99.90
7494;DHT22;3788;49.902;8.590;2023-01-08T04:25:04;9.30;99.90
7494;DHT22;3788;49.902;8.590;2023-01-08T04:27:30;9.30;99.90
7494;DHT22;3788;49.902;8.590;2023-01-08T04:29:57;9.30;99.90
7494;DHT22;3788;49.902;8.590;2023-01-08T04:32:24;9.30;99.90
7494;DHT22;3788;49.902;8.590;2023-01-08T04:34:50;9.30;99.90
7494;DHT22;3788;49.902;8.590;2023-01-08T04:37:19;9.30;99.90
7494;DHT22;3788;49.902;8.590;2023-01-08T04:39:45;9.30;99.90
7494;DHT22;3788;49.902;8.590;2023-01-08T04:42:12;9.30;99.90
7494;DHT22;3788;49.902;8.590;2023-01-08T04:44:39;9.20;99.90
7494;DHT22;3788;49.902;8.590;2023-01-08T04:47:05;9.20;99.90
7494;DHT22;3788;49.902;8.590;2023-01-08T04:49:32;9.20;99.90
7494;DHT22;3788;49.902;8.590;2023-01-08T04:51:58;9.20;99.90
7494;DHT22;3788;49.902;8.590;2023-01-08T04:54:27;9.20;99.90
7494;DHT22;3788;49.902;8.590;2023-01-08T04:56:53;9.20;99.90
7494;DHT22;3788;49.902;8.590;2023-01-08T04:59:20;9.20;99.90
7494;DHT22;3788;49.902;8.590;2023-01-08T05:01:46;9.20;99.90
7494;DHT22;3788;49.902;8.590;2023-01-08T05:04:13;9.10;99.90
7494;DHT22;3788;49.902;8.590;2023-01-08T05:06:40;9.10;99.90
7494;DHT22;3788;49.902;8.590;2023-01-08T05:09:07;9.10;99.90
7494;DHT22;3788;49.902;8.590;2023-01-08T05:11:35;9.10;99.90
7494;DHT22;3788;49.902;8.590;2023-01-08T05:14:01;9.10;99.90
7494;DHT22;3788;49.902;8.590;2023-01-08T05:16:28;9.10;99.90
7494;DHT22;3788;49.902;8.590;2023-01-08T05:18:55;9.10;99.90
7494;DHT22;3788;49.902;8.590;2023-01-08T05:21:21;9.10;99.90
7494;DHT22;3788;49.902;8.590;2023-01-08T05:23:48;9.10;99.90
7494;DHT22;3788;49.902;8.590;2023-01-08T05:26:15;9.10;99.90
7494;DHT22;3788;49.902;8.590;2023-01-08T05:28:45;9.10;99.90
7494;DHT22;3788;49.902;8.590;2023-01-08T05:31:12;9.10;99.90
7494;DHT22;3788;49.902;8.590;2023-01-08T05:33:39;9.00;99.90
7494;DHT22;3788;49.902;8.590;2023-01-08T05:36:06;9.00;99.90
7494;DHT22;3788;49.902;8.590;2023-01-08T05:38:33;9.00;99.90
7494;DHT22;3788;49.902;8.590;2023-01-08T05:41:00;9.00;99.90
7494;DHT22;3788;49.902;8.590;2023-01-08T05:43:27;9.00;99.90
7494;DHT22;3788;49.902;8.590;2023-01-08T05:45:56;9.00;99.90
7494;DHT22;3788;49.902;8.590;2023-01-08T05:48:23;9.00;99.90
7494;DHT22;3788;49.902;8.590;2023-01-08T05:50:50;9.00;99.90
7494;DHT22;3788;49.902;8.590;2023-01-08T05:53:17;9.00;99.90
7494;DHT22;3788;49.902;8.590;2023-01-08T05:55:43;8.90;99.90
7494;DHT22;3788;49.902;8.590;2023-01-08T05:58:10;9.00;99.90
7494;DHT22;3788;49.902;8.590;2023-01-08T06:00:37;8.90;99.90
7494;DHT22;3788;49.902;8.590;2023-01-08T06:03:05;8.90;99.90
7494;DHT22;3788;49.902;8.590;2023-01-08T06:05:32;8.90;99.90
7494;DHT22;3788;49.902;8.590;2023-01-08T06:07:59;8.90;99.90
7494;DHT22;3788;49.902;8.590;2023-01-08T06:10:26;8.90;99.90
7494;DHT22;3788;49.902;8.590;2023-01-08T06:12:53;8.90;99.90
7494;DHT22;3788;49.902;8.590;2023-01-08T06:15:20;8.90;99.90
7494;DHT22;3788;49.902;8.590;2023-01-08T06:17:46;8.90;99.90
7494;DHT22;3788;49.902;8.590;2023-01-08T06:20:15;8.90;99.90
7494;DHT22;3788;49.902;8.590;2023-01-08T06:22:41;8.90;99.90
7494;DHT22;3788;49.902;8.590;2023-01-08T06:25:08;8.90;99.90
7494;DHT22;3788;49.902;8.590;2023-01-08T06:27:35;8.90;99.90
7494;DHT22;3788;49.902;8.590;2023-01-08T06:30:02;8.90;99.90
7494;DHT22;3788;49.902;8.590;2023-01-08T06:32:29;8.90;99.90
7494;DHT22;3788;49.902;8.590;2023-01-08T06:34:56;8.90;99.90
7494;DHT22;3788;49.902;8.590;2023-01-08T06:37:24;8.90;99.90
7494;DHT22;3788;49.902;8.590;2023-01-08T06:39:50;8.90;99.90
7494;DHT22;3788;49.902;8.590;2023-01-08T06:42:17;8.90;99.90
7494;DHT22;3788;49.902;8.590;2023-01-08T06:44:44;8.90;99.90
7494;DHT22;3788;49.902;8.590;2023-01-08T06:47:10;8.90;99.90
7494;DHT22;3788;49.902;8.590;2023-01-08T06:49:37;8.90;99.90
7494;DHT22;3788;49.902;8.590;2023-01-08T06:52:04;8.90;99.90
7494;DHT22;3788;49.902;8.590;2023-01-08T06:54:32;8.90;99.90
7494;DHT22;3788;49.902;8.590;2023-01-08T06:56:58;8.90;99.90
7494;DHT22;3788;49.902;8.590;2023-01-08T06:59:25;8.90;99.90
7494;DHT22;3788;49.902;8.590;2023-01-08T07:01:52;8.90;99.90
7494;DHT22;3788;49.902;8.590;2023-01-08T07:04:19;8.80;99.90
7494;DHT22;3788;49.902;8.590;2023-01-08T07:06:46;8.80;99.90
7494;DHT22;3788;49.902;8.590;2023-01-08T07:09:12;8.80;99.90
7494;DHT22;3788;49.902;8.590;2023-01-08T07:11:41;8.80;99.90
7494;DHT22;3788;49.902;8.590;2023-01-08T07:14:08;8.80;99.90
7494;DHT22;3788;49.902;8.590;2023-01-08T07:16:34;8.80;99.90
7494;DHT22;3788;49.902;8.590;2023-01-08T07:19:01;8.80;99.90
7494;DHT22;3788;49.902;8.590;2023-01-08T07:21:28;8.80;99.90
7494;DHT22;3788;49.902;8.590;2023-01-08T07:23:55;8.70;99.90
7494;DHT22;3788;49.902;8.590;2023-01-08T07:26:22;8.70;99.90
7494;DHT22;3788;49.902;8.590;2023-01-08T07:28:50;8.70;99.90
7494;DHT22;3788;49.902;8.590;2023-01-08T07:31:16;8.70;99.90
7494;DHT22;3788;49.902;8.590;2023-01-08T07:33:43;8.70;99.90
7494;DHT22;3788;49.902;8.590;2023-01-08T07:36:10;8.70;99.90
7494;DHT22;3788;49.902;8.590;2023-01-08T07:38:36;8.70;99.90
7494;DHT22;3788;49.902;8.590;2023-01-08T07:41:03;8.70;99.90
7494;DHT22;3788;49.902;8.590;2023-01-08T07:43:30;8.70;99.90
7494;DHT22;3788;49.902;8.590;2023-01-08T07:46:01;8.70;99.90
7494;DHT22;3788;49.902;8.590;2023-01-08T07:48:27;8.70;99.90
7494;DHT22;3788;49.902;8.590;2023-01-08T07:50:59;8.70;99.90
7494;DHT22;3788;49.902;8.590;2023-01-08T07:53:26;8.70;99.90
7494;DHT22;3788;49.902;8.590;2023-01-08T07:55:58;8.70;99.90
7494;DHT22;3788;49.902;8.590;2023-01-08T07:58:25;8.70;99.90
7494;DHT22;3788;49.902;8.590;2023-01-08T08:00:51;8.70;99.90
7494;DHT22;3788;49.902;8.590;2023-01-08T08:03:20;8.70;99.90
7494;DHT22;3788;49.902;8.590;2023-01-08T08:05:46;8.70;99.90
7494;DHT22;3788;49.902;8.590;2023-01-08T08:08:14;8.70;99.90
7494;DHT22;3788;49.902;8.590;2023-01-08T08:10:42;8.70;99.90
7494;DHT22;3788;49.902;8.590;2023-01-08T08:13:09;8.70;99.90
7494;DHT22;3788;49.902;8.590;2023-01-08T08:15:37;8.70;99.90
7494;DHT22;3788;49.902;8.590;2023-01-08T08:18:04;8.70;99.90
7494;DHT22;3788;49.902;8.590;2023-01-08T08:20:33;8.70;99.90
7494;DHT22;3788;49.902;8.590;2023-01-08T08:23:00;8.80;99.90
7494;DHT22;3788;49.902;8.590;2023-01-08T08:25:28;8.70;99.90
7494;DHT22;3788;49.902;8.590;2023-01-08T08:27:56;8.80;99.90
7494;DHT22;3788;49.902;8.590;2023-01-08T08:30:24;8.80;99.90
7494;DHT22;3788;49.902;8.590;2023-01-08T08:32:51;8.80;99.90
7494;DHT22;3788;49.902;8.590;2023-01-08T08:35:18;8.80;99.90
7494;DHT22;3788;49.902;8.590;2023-01-08T08:37:46;8.70;99.90
7494;DHT22;3788;49.902;8.590;2023-01-08T08:40:13;8.80;99.90
7494;DHT22;3788;49.902;8.590;2023-01-08T08:42:39;8.80;99.90
7494;DHT22;3788;49.902;8.590;2023-01-08T08:45:06;8.80;99.90
7494;DHT22;3788;49.902;8.590;2023-01-08T08:47:34;8.80;99.90
7494;DHT22;3788;49.902;8.590;2023-01-08T08:50:01;8.80;99.90
7494;DHT22;3788;49.902;8.590;2023-01-08T08:52:29;8.80;99.90
7494;DHT22;3788;49.902;8.590;2023-01-08T08:54:57;8.80;99.90
7494;DHT22;3788;49.902;8.590;2023-01-08T08:57:24;8.80;99.90
7494;DHT22;3788;49.902;8.590;2023-01-08T08:59:51;8.80;99.90
7494;DHT22;3788;49.902;8.590;2023-01-08T09:02:17;8.80;99.90
7494;DHT22;3788;49.902;8.590;2023-01-08T09:04:44;8.70;99.90
7494;DHT22;3788;49.902;8.590;2023-01-08T09:07:11;8.70;99.90
7494;DHT22;3788;49.902;8.590;2023-01-08T09:09:38;8.80;99.90
7494;DHT22;3788;49.902;8.590;2023-01-08T09:12:06;8.70;99.90
7494;DHT22;3788;49.902;8.590;2023-01-08T09:14:33;8.70;99.90
7494;DHT22;3788;49.902;8.590;2023-01-08T09:17:00;8.70;99.90
7494;DHT22;3788;49.902;8.590;2023-01-08T09:19:26;8.70;99.90
7494;DHT22;3788;49.902;8.590;2023-01-08T09:21:53;8.70;99.90
7494;DHT22;3788;49.902;8.590;2023-01-08T09:24:20;8.80;99.90
7494;DHT22;3788;49.902;8.590;2023-01-08T09:26:46;8.80;99.90
7494;DHT22;3788;49.902;8.590;2023-01-08T09:29:14;8.80;99.90
7494;DHT22;3788;49.902;8.590;2023-01-08T09:31:41;8.80;99.90
7494;DHT22;3788;49.902;8.590;2023-01-08T09:34:08;8.80;99.90
7494;DHT22;3788;49.902;8.590;2023-01-08T09:36:34;8.80;99.90
7494;DHT22;3788;49.902;8.590;2023-01-08T09:39:01;8.80;99.90
7494;DHT22;3788;49.902;8.590;2023-01-08T09:41:31;8.80;99.90
7494;DHT22;3788;49.902;8.590;2023-01-08T09:44:01;8.80;99.90
7494;DHT22;3788;49.902;8.590;2023-01-08T09:46:30;8.80;99.90
7494;DHT22;3788;49.902;8.590;2023-01-08T09:49:00;8.80;99.90
7494;DHT22;3788;49.902;8.590;2023-01-08T09:51:32;8.80;99.90
7494;DHT22;3788;49.902;8.590;2023-01-08T09:54:00;8.80;99.90
7494;DHT22;3788;49.902;8.590;2023-01-08T09:56:27;8.90;99.90
7494;DHT22;3788;49.902;8.590;2023-01-08T09:58:57;8.90;99.90
7494;DHT22;3788;49.902;8.590;2023-01-08T10:01:27;8.90;99.90
7494;DHT22;3788;49.902;8.590;2023-01-08T10:03:59;8.90;99.90
7494;DHT22;3788;49.902;8.590;2023-01-08T10:06:29;8.90;99.90
7494;DHT22;3788;49.902;8.590;2023-01-08T10:08:56;8.90;99.90
7494;DHT22;3788;49.902;8.590;2023-01-08T10:11:25;8.90;99.90
7494;DHT22;3788;49.902;8.590;2023-01-08T10:13:55;8.90;99.90
7494;DHT22;3788;49.902;8.590;2023-01-08T10:16:27;8.90;99.90
7494;DHT22;3788;49.902;8.590;2023-01-08T10:18:56;8.90;99.90
7494;DHT22;3788;49.902;8.590;2023-01-08T10:21:27;8.90;99.90
7494;DHT22;3788;49.902;8.590;2023-01-08T10:23:55;9.00;99.90
7494;DHT22;3788;49.902;8.590;2023-01-08T10:26:26;9.00;99.90
7494;DHT22;3788;49.902;8.590;2023-01-08T10:29:08;9.00;99.90
7494;DHT22;3788;49.902;8.590;2023-01-08T10:31:48;9.00;99.90
7494;DHT22;3788;49.902;8.590;2023-01-08T10:34:24;9.00;99.90
7494;DHT22;3788;49.902;8.590;2023-01-08T10:36:52;9.10;99.90
7494;DHT22;3788;49.902;8.590;2023-01-08T10:39:22;9.10;99.90
7494;DHT22;3788;49.902;8.590;2023-01-08T10:41:50;9.20;99.90
7494;DHT22;3788;49.902;8.590;2023-01-08T10:44:19;9.20;99.90
7494;DHT22;3788;49.902;8.590;2023-01-08T10:46:49;9.30;99.90
7494;DHT22;3788;49.902;8.590;2023-01-08T10:49:24;9.30;99.90
7494;DHT22;3788;49.902;8.590;2023-01-08T10:51:53;9.40;99.90
7494;DHT22;3788;49.902;8.590;2023-01-08T10:54:28;9.40;99.90
7494;DHT22;3788;49.902;8.590;2023-01-08T10:56:56;9.40;99.90
7494;DHT22;3788;49.902;8.590;2023-01-08T10:59:23;9.40;99.90
7494;DHT22;3788;49.902;8.590;2023-01-08T11:01:52;9.50;99.90
7494;DHT22;3788;49.902;8.590;2023-01-08T11:04:25;9.50;99.90
7494;DHT22;3788;49.902;8.590;2023-01-08T11:06:53;9.50;99.90
7494;DHT22;3788;49.902;8.590;2023-01-08T11:09:28;9.60;99.90
7494;DHT22;3788;49.902;8.590;2023-01-08T11:11:55;9.60;99.90
7494;DHT22;3788;49.902;8.590;2023-01-08T11:14:25;9.70;99.90
7494;DHT22;3788;49.902;8.590;2023-01-08T11:16:52;9.70;99.90
7494;DHT22;3788;49.902;8.590;2023-01-08T11:19:24;9.80;99.90
7494;DHT22;3788;49.902;8.590;2023-01-08T11:21:57;9.80;99.90
7494;DHT22;3788;49.902;8.590;2023-01-08T11:24:26;9.90;99.90
7494;DHT22;3788;49.902;8.590;2023-01-08T11:26:57;9.90;99.90
7494;DHT22;3788;49.902;8.590;2023-01-08T11:29:30;9.80;99.90
7494;DHT22;3788;49.902;8.590;2023-01-08T11:32:10;9.80;99.90
7494;DHT22;3788;49.902;8.590;2023-01-08T11:34:50;9.80;99.90
7494;DHT22;3788;49.902;8.590;2023-01-08T11:37:20;9.90;99.90
7494;DHT22;3788;49.902;8.590;2023-01-08T11:39:47;9.90;99.90
7494;DHT22;3788;49.902;8.590;2023-01-08T11:42:31;9.90;99.90
7494;DHT22;3788;49.902;8.590;2023-01-08T11:45:09;10.00;99.90
7494;DHT22;3788;49.902;8.590;2023-01-08T11:47:50;10.00;99.90
7494;DHT22;3788;49.902;8.590;2023-01-08T11:50:26;10.10;99.90
7494;DHT22;3788;49.902;8.590;2023-01-08T11:53:15;10.10;99.90
7494;DHT22;3788;49.902;8.590;2023-01-08T11:55:53;10.20;99.90
7494;DHT22;3788;49.902;8.590;2023-01-08T11:58:32;10.30;99.90
7494;DHT22;3788;49.902;8.590;2023-01-08T12:01:17;10.30;99.90
7494;DHT22;3788;49.902;8.590;2023-01-08T12:03:52;10.30;99.90
7494;DHT22;3788;49.902;8.590;2023-01-08T12:06:30;10.40;99.90
7494;DHT22;3788;49.902;8.590;2023-01-08T12:09:07;10.40;99.90
7494;DHT22;3788;49.902;8.590;2023-01-08T12:11:39;10.40;99.90
7494;DHT22;3788;49.902;8.590;2023-01-08T12:14:27;10.40;99.90
7494;DHT22;3788;49.902;8.590;2023-01-08T12:20:18;10.40;99.90
7494;DHT22;3788;49.902;8.590;2023-01-08T12:22:56;10.40;99.90
7494;DHT22;3788;49.902;8.590;2023-01-08T12:25:37;10.30;99.90
7494;DHT22;3788;49.902;8.590;2023-01-08T12:28:16;10.30;99.90
7494;DHT22;3788;49.902;8.590;2023-01-08T12:30:59;10.30;99.90
7494;DHT22;3788;49.902;8.590;2023-01-08T12:33:35;10.30;99.90
7494;DHT22;3788;49.902;8.590;2023-01-08T12:36:08;10.30;99.90
7494;DHT22;3788;49.902;8.590;2023-01-08T12:38:39;10.40;99.90
7494;DHT22;3788;49.902;8.590;2023-01-08T12:41:10;10.40;99.90
7494;DHT22;3788;49.902;8.590;2023-01-08T12:43:44;10.40;99.90
7494;DHT22;3788;49.902;8.590;2023-01-08T12:46:13;10.40;99.90
7494;DHT22;3788;49.902;8.590;2023-01-08T12:48:42;10.40;99.90
7494;DHT22;3788;49.902;8.590;2023-01-08T12:51:12;10.40;99.90
7494;DHT22;3788;49.902;8.590;2023-01-08T12:53:51;10.40;99.90
7494;DHT22;3788;49.902;8.590;2023-01-08T12:56:25;10.40;99.90
7494;DHT22;3788;49.902;8.590;2023-01-08T12:59:14;10.30;99.90
7494;DHT22;3788;49.902;8.590;2023-01-08T13:01:48;10.30;99.90
7494;DHT22;3788;49.902;8.590;2023-01-08T13:04:16;10.30;99.90
7494;DHT22;3788;49.902;8.590;2023-01-08T13:06:52;10.30;99.90
7494;DHT22;3788;49.902;8.590;2023-01-08T13:09:24;10.30;99.90
7494;DHT22;3788;49.902;8.590;2023-01-08T13:11:53;10.30;99.90
7494;DHT22;3788;49.902;8.590;2023-01-08T13:14:20;10.30;99.90
7494;DHT22;3788;49.902;8.590;2023-01-08T13:17:00;10.30;99.90
7494;DHT22;3788;49.902;8.590;2023-01-08T13:19:29;10.30;99.90
7494;DHT22;3788;49.902;8.590;2023-01-08T13:21:57;10.40;99.90
7494;DHT22;3788;49.902;8.590;2023-01-08T13:24:29;10.40;99.90
7494;DHT22;3788;49.902;8.590;2023-01-08T13:27:08;10.40;99.90
7494;DHT22;3788;49.902;8.590;2023-01-08T13:29:37;10.40;99.90
7494;DHT22;3788;49.902;8.590;2023-01-08T13:34:46;10.40;99.90
7494;DHT22;3788;49.902;8.590;2023-01-08T13:37:22;10.40;99.90
7494;DHT22;3788;49.902;8.590;2023-01-08T13:39:50;10.40;99.90
7494;DHT22;3788;49.902;8.590;2023-01-08T13:42:21;10.40;99.90
7494;DHT22;3788;49.902;8.590;2023-01-08T13:44:50;10.40;99.90
7494;DHT22;3788;49.902;8.590;2023-01-08T13:47:26;10.40;99.90
7494;DHT22;3788;49.902;8.590;2023-01-08T13:49:55;10.40;99.90
7494;DHT22;3788;49.902;8.590;2023-01-08T13:52:29;10.40;99.90
7494;DHT22;3788;49.902;8.590;2023-01-08T13:54:59;10.30;99.90
7494;DHT22;3788;49.902;8.590;2023-01-08T13:57:33;10.30;99.90
7494;DHT22;3788;49.902;8.590;2023-01-08T14:00:04;10.30;99.90
7494;DHT22;3788;49.902;8.590;2023-01-08T14:02:33;10.30;99.90
7494;DHT22;3788;49.902;8.590;2023-01-08T14:05:18;10.40;99.90
7494;DHT22;3788;49.902;8.590;2023-01-08T14:07:45;10.40;99.90
7494;DHT22;3788;49.902;8.590;2023-01-08T14:10:14;10.40;99.90
7494;DHT22;3788;49.902;8.590;2023-01-08T14:12:41;10.50;99.90
7494;DHT22;3788;49.902;8.590;2023-01-08T14:15:16;10.50;99.90
7494;DHT22;3788;49.902;8.590;2023-01-08T14:17:43;10.40;99.90
7494;DHT22;3788;49.902;8.590;2023-01-08T14:20:11;10.50;99.90
7494;DHT22;3788;49.902;8.590;2023-01-08T14:22:38;10.40;99.90
7494;DHT22;3788;49.902;8.590;2023-01-08T14:25:14;10.30;99.90
7494;DHT22;3788;49.902;8.590;2023-01-08T14:27:42;10.30;99.90
7494;DHT22;3788;49.902;8.590;2023-01-08T14:30:20;10.20;99.90
7494;DHT22;3788;49.902;8.590;2023-01-08T14:32:46;10.20;99.90
7494;DHT22;3788;49.902;8.590;2023-01-08T14:35:16;10.20;99.90
7494;DHT22;3788;49.902;8.590;2023-01-08T14:37:44;10.20;99.90
7494;DHT22;3788;49.902;8.590;2023-01-08T14:40:30;10.10;99.90
7494;DHT22;3788;49.902;8.590;2023-01-08T14:43:03;10.10;99.90
7494;DHT22;3788;49.902;8.590;2023-01-08T14:45:32;10.10;99.90
7494;DHT22;3788;49.902;8.590;2023-01-08T14:48:01;10.10;99.90
7494;DHT22;3788;49.902;8.590;2023-01-08T14:50:35;10.10;99.90
7494;DHT22;3788;49.902;8.590;2023-01-08T14:53:04;10.00;99.90
7494;DHT22;3788;49.902;8.590;2023-01-08T14:55:35;10.00;99.90
7494;DHT22;3788;49.902;8.590;2023-01-08T14:58:03;10.00;99.90
7494;DHT22;3788;49.902;8.590;2023-01-08T15:00:36;10.10;99.90
7494;DHT22;3788;49.902;8.590;2023-01-08T15:03:03;10.00;99.90
7494;DHT22;3788;49.902;8.590;2023-01-08T15:05:32;10.00;99.90
7494;DHT22;3788;49.902;8.590;2023-01-08T15:08:01;10.00;99.90
7494;DHT22;3788;49.902;8.590;2023-01-08T15:10:34;10.00;99.90
7494;DHT22;3788;49.902;8.590;2023-01-08T15:13:02;9.90;99.90
7494;DHT22;3788;49.902;8.590;2023-01-08T15:15:33;9.90;99.90
7494;DHT22;3788;49.902;8.590;2023-01-08T15:18:00;9.90;99.90
7494;DHT22;3788;49.902;8.590;2023-01-08T15:20:29;9.80;99.90
7494;DHT22;3788;49.902;8.590;2023-01-08T15:22:57;9.80;99.90
7494;DHT22;3788;49.902;8.590;2023-01-08T15:25:25;9.80;99.90
7494;DHT22;3788;49.902;8.590;2023-01-08T15:27:57;9.80;99.90
7494;DHT22;3788;49.902;8.590;2023-01-08T15:30:28;9.80;99.90
7494;DHT22;3788;49.902;8.590;2023-01-08T15:33:06;9.80;99.90
7494;DHT22;3788;49.902;8.590;2023-01-08T15:35:33;9.80;99.90
7494;DHT22;3788;49.902;8.590;2023-01-08T15:38:00;9.70;99.90
7494;DHT22;3788;49.902;8.590;2023-01-08T15:40:27;9.70;99.90
7494;DHT22;3788;49.902;8.590;2023-01-08T15:42:55;9.70;99.90
7494;DHT22;3788;49.902;8.590;2023-01-08T15:45:37;9.70;99.90
7494;DHT22;3788;49.902;8.590;2023-01-08T15:48:04;9.60;99.90
7494;DHT22;3788;49.902;8.590;2023-01-08T15:50:31;9.60;99.90
7494;DHT22;3788;49.902;8.590;2023-01-08T15:53:02;9.60;99.90
7494;DHT22;3788;49.902;8.590;2023-01-08T15:55:29;9.50;99.90
7494;DHT22;3788;49.902;8.590;2023-01-08T15:57:58;9.50;99.90
7494;DHT22;3788;49.902;8.590;2023-01-08T16:00:25;9.50;99.90
7494;DHT22;3788;49.902;8.590;2023-01-08T16:02:53;9.40;99.90
7494;DHT22;3788;49.902;8.590;2023-01-08T16:05:21;9.40;99.90
7494;DHT22;3788;49.902;8.590;2023-01-08T16:07:48;9.40;99.90
7494;DHT22;3788;49.902;8.590;2023-01-08T16:10:16;9.40;99.90
7494;DHT22;3788;49.902;8.590;2023-01-08T16:12:43;9.40;99.90
7494;DHT22;3788;49.902;8.590;2023-01-08T16:15:14;9.50;99.90
7494;DHT22;3788;49.902;8.590;2023-01-08T16:17:41;9.50;99.90
7494;DHT22;3788;49.902;8.590;2023-01-08T16:20:09;9.50;99.90
7494;DHT22;3788;49.902;8.590;2023-01-08T16:22:36;9.50;99.90
7494;DHT22;3788;49.902;8.590;2023-01-08T16:25:03;9.60;99.90
7494;DHT22;3788;49.902;8.590;2023-01-08T16:27:31;9.60;99.90
7494;DHT22;3788;49.902;8.590;2023-01-08T16:29:58;9.60;99.90
7494;DHT22;3788;49.902;8.590;2023-01-08T16:32:27;9.60;99.90
7494;DHT22;3788;49.902;8.590;2023-01-08T16:34:54;9.60;99.90